Time,TemperatureF,DewpointF,PressureIn,WindDirection,WindDirectionDegrees,WindSpeedMPH,WindSpeedGustMPH,Humidity,HourlyPrecipIn,Conditions,Clouds,dailyrainin,SoftwareType,DateUTC
2013-11-03 00:11:00,32.9,21.0,30.20,ENE,62,13.0,16.0,61,0.00,,,0.00,weatherlink.com 1.10,2013-11-03 04:11:00,
2013-11-03 00:26:00,32.8,21.0,30.20,NE,34,6.0,14.0,62,0.00,,,0.00,weatherlink.com 1.10,2013-11-03 04:26:00,
2013-11-03 00:41:00,32.8,21.0,30.21,ENE,69,8.0,14.0,62,0.00,,,0.00,weatherlink.com 1.10,2013-11-03 04:41:00,
2013-11-03 00:56:00,32.9,21.0,30.21,ENE,60,10.0,13.0,62,0.00,,,0.00,weatherlink.com 1.10,2013-11-03 04:56:00,
2013-11-03 01:11:00,32.7,20.0,30.21,ENE,73,9.0,15.0,61,0.00,,,0.00,weatherlink.com 1.10,2013-11-03 05:11:00,
2013-11-03 01:26:00,32.6,20.0,30.22,ENE,59,8.0,16.0,59,0.00,,,0.00,weatherlink.com 1.10,2013-11-03 05:26:00,
2013-11-03 01:41:00,32.5,19.0,30.23,ENE,73,9.0,14.0,59,0.00,,,0.00,weatherlink.com 1.10,2013-11-03 05:41:00,
2013-11-03 01:56:00,32.5,20.0,30.24,NE,51,8.0,15.0,61,0.00,,,0.00,weatherlink.com 1.10,2013-11-03 05:56:00,
2013-11-03 01:11:00,32.5,21.0,30.24,ENE,63,8.0,12.0,62,0.00,,,0.00,weatherlink.com 1.10,2013-11-03 06:11:00,
2013-11-03 01:26:00,32.4,21.0,30.25,East,79,10.0,13.0,62,0.00,,,0.00,weatherlink.com 1.10,2013-11-03 06:26:00,
2013-11-03 01:41:00,32.2,20.0,30.26,ENE,63,10.0,13.0,62,0.00,,,0.00,weatherlink.com 1.10,2013-11-03 06:41:00,
2013-11-03 01:56:00,32.1,21.0,30.26,ENE,59,10.0,14.0,64,0.00,,,0.00,weatherlink.com 1.10,2013-11-03 06:56:00,
2013-11-03 02:11:00,32.2,21.0,30.27,NE,49,10.0,13.0,64,0.00,,,0.00,weatherlink.com 1.10,2013-11-03 07:11:00,
2013-11-03 02:26:00,32.1,21.0,30.27,ENE,66,9.0,13.0,64,0.00,,,0.00,weatherlink.com 1.10,2013-11-03 07:26:00,
2013-11-03 02:41:00,31.7,21.0,30.28,ESE,107,3.0,8.0,66,0.00,,,0.00,weatherlink.com 1.10,2013-11-03 07:41:00,
2013-11-03 02:56:00,31.3,21.0,30.28,East,96,6.0,10.0,67,0.00,,,0.00,weatherlink.com 1.10,2013-11-03 07:56:00,
2013-11-03 03:11:00,31.2,22.0,30.29,SE,134,4.0,10.0,69,0.00,,,0.00,weatherlink.com 1.10,2013-11-03 08:11:00,
2013-11-03 03:26:00,30.2,22.0,30.29,SE,128,2.0,4.0,71,0.00,,,0.00,weatherlink.com 1.10,2013-11-03 08:26:00,
2013-11-03 03:41:00,29.7,22.0,30.29,ESE,113,2.0,5.0,72,0.00,,,0.00,weatherlink.com 1.10,2013-11-03 08:41:00,
2013-11-03 03:56:00,29.5,22.0,30.29,SE,140,4.0,6.0,74,0.00,,,0.00,weatherlink.com 1.10,2013-11-03 08:56:00,
2013-11-03 04:11:00,29.7,21.0,30.30,SE,128,2.0,5.0,71,0.00,,,0.00,weatherlink.com 1.10,2013-11-03 09:11:00,
2013-11-03 04:26:00,29.5,22.0,30.31,SE,144,3.0,4.0,72,0.00,,,0.00,weatherlink.com 1.10,2013-11-03 09:26:00,
2013-11-03 04:41:00,29.3,22.0,30.32,SE,137,4.0,7.0,73,0.00,,,0.00,weatherlink.com 1.10,2013-11-03 09:41:00,
2013-11-03 04:56:00,29.4,21.0,30.32,SE,130,5.0,6.0,72,0.00,,,0.00,weatherlink.com 1.10,2013-11-03 09:56:00,
2013-11-03 05:11:00,29.1,22.0,30.33,SE,130,2.0,5.0,74,0.00,,,0.00,weatherlink.com 1.10,2013-11-03 10:11:00,
2013-11-03 05:26:00,28.9,22.0,30.33,SE,134,4.0,5.0,74,0.00,,,0.00,weatherlink.com 1.10,2013-11-03 10:26:00,
2013-11-03 05:41:00,28.7,22.0,30.34,SE,134,2.0,4.0,76,0.00,,,0.00,weatherlink.com 1.10,2013-11-03 10:41:00,
2013-11-03 05:56:00,28.4,22.0,30.34,SSE,158,1.0,3.0,77,0.00,,,0.00,weatherlink.com 1.10,2013-11-03 10:56:00,
2013-11-03 06:11:00,28.1,22.0,30.35,South,169,1.0,2.0,78,0.00,,,0.00,weatherlink.com 1.10,2013-11-03 11:11:00,
2013-11-03 06:27:00,27.9,22.0,30.35,SE,134,3.0,5.0,79,0.00,,,0.00,weatherlink.com 1.10,2013-11-03 11:27:00,
2013-11-03 06:42:00,28.0,22.0,30.36,SSE,148,2.0,6.0,78,0.00,,,0.00,weatherlink.com 1.10,2013-11-03 11:42:00,
2013-11-03 06:57:00,27.8,22.0,30.36,SSE,158,2.0,3.0,79,0.00,,,0.00,weatherlink.com 1.10,2013-11-03 11:57:00,
2013-11-03 07:12:00,27.6,22.0,30.37,SSE,151,2.0,5.0,80,0.00,,,0.00,weatherlink.com 1.10,2013-11-03 12:12:00,
2013-11-03 07:27:00,27.6,22.0,30.38,SE,146,4.0,5.0,80,0.00,,,0.00,weatherlink.com 1.10,2013-11-03 12:27:00,
2013-11-03 07:42:00,28.2,22.0,30.39,SSE,155,3.0,5.0,78,0.00,,,0.00,weatherlink.com 1.10,2013-11-03 12:42:00,
2013-11-03 07:57:00,29.0,23.0,30.40,SE,140,2.0,5.0,77,0.00,,,0.00,weatherlink.com 1.10,2013-11-03 12:57:00,
2013-11-03 08:12:00,30.1,23.0,30.41,SE,130,4.0,8.0,74,0.00,,,0.00,weatherlink.com 1.10,2013-11-03 13:12:00,
2013-11-03 08:27:00,30.8,23.0,30.41,ESE,123,3.0,8.0,72,0.00,,,0.00,weatherlink.com 1.10,2013-11-03 13:27:00,
2013-11-03 08:42:00,31.7,23.0,30.41,SE,125,7.0,9.0,69,0.00,,,0.00,weatherlink.com 1.10,2013-11-03 13:42:00,
2013-11-03 08:57:00,32.3,22.0,30.41,SE,134,12.0,12.0,66,0.00,,,0.00,weatherlink.com 1.10,2013-11-03 13:57:00,
2013-11-03 09:12:00,32.4,21.0,30.42,ESE,123,5.0,11.0,64,0.00,,,0.00,weatherlink.com 1.10,2013-11-03 14:12:00,
2013-11-03 09:27:00,32.6,22.0,30.42,ESE,103,11.0,13.0,64,0.00,,,0.00,weatherlink.com 1.10,2013-11-03 14:27:00,
2013-11-03 09:42:00,33.1,22.0,30.42,ESE,103,8.0,11.0,64,0.00,,,0.00,weatherlink.com 1.10,2013-11-03 14:42:00,
2013-11-03 09:57:00,33.4,22.0,30.43,ESE,104,4.0,14.0,63,0.00,,,0.00,weatherlink.com 1.10,2013-11-03 14:57:00,
2013-11-03 10:12:00,33.4,22.0,30.43,ESE,113,3.0,12.0,63,0.00,,,0.00,weatherlink.com 1.10,2013-11-03 15:12:00,
2013-11-03 10:27:00,33.7,22.0,30.44,East,92,5.0,11.0,63,0.00,,,0.00,weatherlink.com 1.10,2013-11-03 15:27:00,
2013-11-03 10:42:00,34.3,22.0,30.44,SE,133,8.0,11.0,61,0.00,,,0.00,weatherlink.com 1.10,2013-11-03 15:42:00,
2013-11-03 10:57:00,34.8,23.0,30.44,East,98,6.0,10.0,62,0.00,,,0.00,weatherlink.com 1.10,2013-11-03 15:57:00,
2013-11-03 11:12:00,35.9,23.0,30.44,East,101,7.0,9.0,59,0.00,,,0.00,weatherlink.com 1.10,2013-11-03 16:12:00,
2013-11-03 11:27:00,35.6,23.0,30.45,SE,131,5.0,8.0,60,0.00,,,0.00,weatherlink.com 1.10,2013-11-03 16:27:00,
2013-11-03 11:42:00,36.3,23.0,30.45,East,96,6.0,9.0,59,0.00,,,0.00,weatherlink.com 1.10,2013-11-03 16:42:00,
2013-11-03 11:57:00,36.2,23.0,30.44,ESE,116,4.0,11.0,60,0.00,,,0.00,weatherlink.com 1.10,2013-11-03 16:57:00,
2013-11-03 12:12:00,36.4,22.0,30.45,East,101,8.0,12.0,57,0.00,,,0.00,weatherlink.com 1.10,2013-11-03 17:12:00,
2013-11-03 12:27:00,36.7,23.0,30.44,SE,124,3.0,10.0,57,0.00,,,0.00,weatherlink.com 1.10,2013-11-03 17:27:00,
2013-11-03 12:42:00,36.9,22.0,30.44,ESE,116,7.0,8.0,56,0.00,,,0.00,weatherlink.com 1.10,2013-11-03 17:42:00,
2013-11-03 12:57:00,36.9,23.0,30.45,SE,134,5.0,11.0,57,0.00,,,0.00,weatherlink.com 1.10,2013-11-03 17:57:00,
2013-11-03 13:12:00,37.2,22.0,30.45,SSE,148,2.0,12.0,55,0.00,,,0.00,weatherlink.com 1.10,2013-11-03 18:12:00,
2013-11-03 13:27:00,38.0,23.0,30.45,South,176,2.0,9.0,54,0.00,,,0.00,weatherlink.com 1.10,2013-11-03 18:27:00,
2013-11-03 13:42:00,37.5,23.0,30.45,SE,138,4.0,7.0,55,0.00,,,0.00,weatherlink.com 1.10,2013-11-03 18:42:00,
2013-11-03 13:57:00,37.3,22.0,30.45,SE,146,5.0,11.0,55,0.00,,,0.00,weatherlink.com 1.10,2013-11-03 18:57:00,
2013-11-03 14:12:00,37.6,21.0,30.45,SSE,167,3.0,8.0,52,0.00,,,0.00,weatherlink.com 1.10,2013-11-03 19:12:00,
2013-11-03 14:27:00,38.0,23.0,30.45,SE,131,3.0,7.0,55,0.00,,,0.00,weatherlink.com 1.10,2013-11-03 19:27:00,
2013-11-03 14:42:00,37.9,22.0,30.45,South,174,3.0,10.0,52,0.00,,,0.00,weatherlink.com 1.10,2013-11-03 19:42:00,
2013-11-03 14:57:00,37.6,22.0,30.45,SE,140,6.0,11.0,53,0.00,,,0.00,weatherlink.com 1.10,2013-11-03 19:57:00,
2013-11-03 15:12:00,37.7,23.0,30.46,SE,142,4.0,9.0,56,0.00,,,0.00,weatherlink.com 1.10,2013-11-03 20:12:00,
2013-11-03 15:27:00,37.3,24.0,30.46,SE,136,2.0,11.0,58,0.00,,,0.00,weatherlink.com 1.10,2013-11-03 20:27:00,
2013-11-03 15:42:00,37.4,24.0,30.46,SE,134,4.0,12.0,58,0.00,,,0.00,weatherlink.com 1.10,2013-11-03 20:42:00,
2013-11-03 15:57:00,37.0,24.0,30.45,SE,130,11.0,12.0,59,0.00,,,0.00,weatherlink.com 1.10,2013-11-03 20:57:00,
2013-11-03 16:12:00,36.9,24.0,30.45,SE,144,4.0,10.0,60,0.00,,,0.00,weatherlink.com 1.10,2013-11-03 21:12:00,
2013-11-03 16:27:00,36.7,25.0,30.45,ESE,122,5.0,7.0,62,0.00,,,0.00,weatherlink.com 1.10,2013-11-03 21:27:00,
2013-11-03 16:42:00,36.4,25.0,30.45,ESE,111,4.0,5.0,64,0.00,,,0.00,weatherlink.com 1.10,2013-11-03 21:42:00,
2013-11-03 16:57:00,35.6,25.0,30.45,SE,137,4.0,6.0,65,0.00,,,0.00,weatherlink.com 1.10,2013-11-03 21:57:00,
2013-11-03 17:12:00,35.1,25.0,30.45,ESE,121,2.0,5.0,66,0.00,,,0.00,weatherlink.com 1.10,2013-11-03 22:12:00,
2013-11-03 17:27:00,34.0,25.0,30.45,SE,135,2.0,3.0,69,0.00,,,0.00,weatherlink.com 1.10,2013-11-03 22:27:00,
2013-11-03 17:42:00,32.9,25.0,30.45,SE,142,2.0,3.0,73,0.00,,,0.00,weatherlink.com 1.10,2013-11-03 22:42:00,
2013-11-03 17:57:00,31.4,25.0,30.45,SSE,164,1.0,3.0,77,0.00,,,0.00,weatherlink.com 1.10,2013-11-03 22:57:00,
2013-11-03 18:13:00,30.9,25.0,30.46,SSE,154,1.0,4.0,78,0.00,,,0.00,weatherlink.com 1.10,2013-11-03 23:13:00,
2013-11-03 18:28:00,31.4,25.0,30.46,SSE,162,1.0,4.0,78,0.00,,,0.00,weatherlink.com 1.10,2013-11-03 23:28:00,
2013-11-03 18:43:00,31.3,25.0,30.47,SE,135,4.0,5.0,78,0.00,,,0.00,weatherlink.com 1.10,2013-11-03 23:43:00,
2013-11-03 18:58:00,31.4,25.0,30.47,SSE,151,2.0,4.0,78,0.00,,,0.00,weatherlink.com 1.10,2013-11-03 23:58:00,
2013-11-03 19:13:00,31.5,26.0,30.47,SE,144,1.0,4.0,79,0.00,,,0.00,weatherlink.com 1.10,2013-11-04 00:13:00,
2013-11-03 19:28:00,32.3,26.0,30.47,SE,140,4.0,4.0,78,0.00,,,0.00,weatherlink.com 1.10,2013-11-04 00:28:00,
2013-11-03 19:43:00,32.9,26.0,30.47,SE,141,3.0,5.0,77,0.00,,,0.00,weatherlink.com 1.10,2013-11-04 00:43:00,
2013-11-03 19:58:00,33.5,27.0,30.48,SE,144,3.0,5.0,77,0.00,,,0.00,weatherlink.com 1.10,2013-11-04 00:58:00,
2013-11-03 20:13:00,33.5,27.0,30.47,SE,138,3.0,5.0,77,0.00,,,0.00,weatherlink.com 1.10,2013-11-04 01:13:00,
2013-11-03 20:28:00,33.8,27.0,30.48,SSE,163,4.0,7.0,77,0.00,,,0.00,weatherlink.com 1.10,2013-11-04 01:28:00,
2013-11-03 20:43:00,34.2,28.0,30.48,South,169,4.0,6.0,77,0.00,,,0.00,weatherlink.com 1.10,2013-11-04 01:43:00,
2013-11-03 20:58:00,34.9,28.0,30.47,SE,135,5.0,10.0,77,0.00,,,0.00,weatherlink.com 1.10,2013-11-04 01:58:00,
2013-11-03 21:13:00,35.2,28.0,30.47,SE,141,3.0,9.0,76,0.00,,,0.00,weatherlink.com 1.10,2013-11-04 02:13:00,
2013-11-03 21:28:00,35.5,29.0,30.47,SSE,153,3.0,9.0,77,0.00,,,0.00,weatherlink.com 1.10,2013-11-04 02:28:00,
2013-11-03 21:43:00,35.6,29.0,30.48,SE,140,10.0,11.0,77,0.00,,,0.00,weatherlink.com 1.10,2013-11-04 02:43:00,
2013-11-03 21:58:00,36.3,29.0,30.48,SE,146,8.0,10.0,76,0.00,,,0.00,weatherlink.com 1.10,2013-11-04 02:58:00,
2013-11-03 22:13:00,36.2,30.0,30.49,SSE,149,2.0,11.0,77,0.00,,,0.00,weatherlink.com 1.10,2013-11-04 03:13:00,
2013-11-03 22:28:00,36.6,30.0,30.49,SE,130,7.0,9.0,77,0.00,,,0.00,weatherlink.com 1.10,2013-11-04 03:28:00,
2013-11-03 22:43:00,37.1,30.0,30.49,SE,144,4.0,11.0,76,0.00,,,0.00,weatherlink.com 1.10,2013-11-04 03:43:00,
2013-11-03 22:58:00,37.1,31.0,30.49,SSE,154,4.0,10.0,77,0.00,,,0.00,weatherlink.com 1.10,2013-11-04 03:58:00,
2013-11-03 23:13:00,37.4,30.0,30.49,ESE,117,4.0,12.0,76,0.00,,,0.00,weatherlink.com 1.10,2013-11-04 04:13:00,
2013-11-03 23:28:00,37.4,30.0,30.50,SSE,152,4.0,13.0,76,0.00,,,0.00,weatherlink.com 1.10,2013-11-04 04:28:00,
2013-11-03 23:43:00,37.8,31.0,30.50,ESE,122,5.0,13.0,76,0.00,,,0.00,weatherlink.com 1.10,2013-11-04 04:43:00,
2013-11-03 23:58:00,38.0,31.0,30.50,SE,130,8.0,17.0,75,0.00,,,0.00,weatherlink.com 1.10,2013-11-04 04:58:00,